Arlington, MN

12:44 AM CDT on September 05, 2015 (GMT -0500)
Severance Lake | | Change Station
CLOSE
Current Station
Personal Weather Station
Location: Glencoe, MN
Elevation: 997 ft
Nearby Weather Stations

Elev 997 ft 44.68 °N, 94.13 °W | Updated 10 minutes ago

Partly Cloudy
Partly Cloudy
74.8 °F
Feels Like 74 °F
N
5.0
Wind Variable Wind from SSE
Gusts 9.0 mph

Today
High -- | Low -- °F
--% Chance of Precip.
Yesterday
High -- | Low -- °F
Precip. -- in
6:43 AM 7:46 PM
Waning Gibbous, 52% visible
Pressure 29.92 in
Visibility 10.0 miles
Clouds Scattered Clouds 11000 ft
Heat Index 74 °F
Dew Point 71 °F
Humidity 89%
Rainfall 0.00 in
Snow Depth Not available.
UV 0 out of 12
Pollen 9.10 out of 12
Air Quality Not available.
Flu Activity Not available.
METAR KGYL 050534Z AUTO 13004KT 10SM SCT110 24/22 A2992 RMK AO2 T02360218
Pressure 29.92 in
Visibility 10.0 miles
Clouds Scattered Clouds 11000 ft
Heat Index 74 °F
Dew Point 71 °F
Humidity 89%
Rainfall 0.00 in
Snow Depth Not available.
UV 0 out of 12
Pollen 9.10 out of 12
Air Quality Not available.
Flu Activity Not available.
METAR KGYL 050534Z AUTO 13004KT 10SM SCT110 24/22 A2992 RMK AO2 T02360218

10-Day Weather Forecast

×

Almanac

Astronomy

Sep. 05, 2015 Rise Set
Actual Time
Civil Twilight
Nautical Twilight
Astronomical Twilight
Moon
Length of Visible Light
Length of Day
Tomorrow will be .
, % of the Moon is Illuminated

Today's Extremes

State Highs State Lows

Community

WunderPhotos

Upload Photos

1,852,428 photos uploaded!

WunderBlogs® & News

Nearby

Air Quality

  Air Quality AQ Index Pollutant
Not available.

Snow Depth

Station Depth Elevation

Earthquake Activity

City Distance Mag. Time & Date
Minimum magnitude displayed is 2.5.

Coastal Water Temperatures

Place Temperature

Stations

Nearby Weather Stations

Station Location Temp. Windchill Dew Point Humidity Wind Precip. Elev Updated Type